Warners (210, 211, 212) Station Data

Red Flag Warning: No
Fire Weather Zone: 258
SDGE Region: Ramona
Lat/Lon: 33.248/-116.697

Observations

Time Wind Speed/Gust Temp(F) RH Fuel Moist Fuel Temp(F) Dewpt(F) Tmax(F) Tmin(F) Accum Precip 10-min Precip SL Press(mb)
5/24 8:30am 24 4 G 6 65° 37% - - 38° 65.9° 49.3° - - -
5/24 8:20am 35 3 G 5 63° 44% - - 41° 64.4° 49.3° - - -
5/24 8:10am 102 0 G 2 61° 51% - - 43° 63.1° 49.3° - - -
5/24 8:00am 232 2 G 4 60° 55% - - 43° 61.1° 49.3° - - -
5/24 7:50am 254 1 G 4 59° 56% - - 43° 61.1° 49.3° - - -
5/24 7:40am 245 3 G 5 58° 56% - - 43° 61.1° 49.3° - - -
5/24 7:30am 312 2 G 3 58° 57% - - 43° 61.1° 49.3° - - -
5/24 7:20am 286 2 G 4 58° 58% - - 43° 61.1° 49.3° - - -
5/24 7:10am 249 1 G 2 56° 61% - - 43° 61.1° 49.3° - - -
5/24 7:00am 298 0 G 1 55° 67% - - 44° 61.1° 49.3° - - -
5/24 6:50am 129 1 G 2 52° 70% - - 43° 61.1° 49.3° - - -
5/24 6:40am 129 3 G 4 51° 69% - - 41° 61.1° 49.3° - - -
5/24 6:30am 154 3 G 4 50° 69% - - 40° 61.1° 49.3° - - -
5/24 6:20am 102 4 G 5 51° 66% - - 40° 61.1° 49.3° - - -
5/24 6:10am 86 3 G 4 52° 68% - - 42° 61.1° 49.3° - - -
5/24 6:00am 59 4 G 6 51° 72% - - 42° 61.1° 49.3° - - -
5/24 5:50am 62 7 G 8 50° 69% - - 41° 61.1° 49.3° - - -
5/24 5:40am 74 4 G 6 51° 74% - - 43° 61.1° 49.3° - - -
5/24 5:30am 32 2 G 3 52° 77% - - 45° 61.1° 49.3° - - -
5/24 5:20am 160 3 G 4 51° 76% - - 44° 61.1° 49.3° - - -
5/24 5:10am 173 4 G 4 50° 77% - - 43° 61.1° 49.3° - - -
5/24 5:00am 168 4 G 5 50° 73% - - 42° 61.1° 49.3° - - -
5/24 4:50am 183 4 G 5 50° 73% - - 42° 61.1° 49.5° - - -
5/24 4:40am 168 3 G 4 50° 70% - - 41° 61.1° 49.7° - - -
5/24 4:30am 130 3 G 5 51° 67% - - 41° 61.1° 50.6° - - -
5/24 4:20am 87 4 G 5 53° 62% - - 41° 61.1° 52° - - -
5/24 4:10am 81 5 G 6 54° 61% - - 41° 61.1° 52° - - -
5/24 4:00am 73 6 G 7 53° 63% - - 41° 61.1° 52° - - -
5/24 3:50am 74 7 G 9 52° 65% - - 41° 61.1° 52° - - -
5/24 3:40am 73 6 G 7 55° 59% - - 42° 61.1° 53.1° - - -
5/24 3:30am 79 4 G 5 55° 60% - - 42° 61.1° 54.4° - - -
5/24 3:20am 64 2 G 3 57° 58% - - 42° 61.1° 54.7° - - -
5/24 3:10am 66 3 G 5 55° 60% - - 42° 61.1° 54.7° - - -
5/24 3:00am 74 5 G 6 55° 61% - - 42° 61.1° 54.7° - - -
5/24 2:50am 83 3 G 4 55° 61% - - 42° 61.1° 54.7° - - -
5/24 2:40am 136 3 G 4 55° 61% - - 42° 61.1° 54.7° - - -
5/24 2:30am 160 3 G 4 56° 62% - - 43° 61.1° 55.2° - - -
5/24 2:20am 169 3 G 4 56° 60% - - 42° 61.1° 55.2° - - -
5/24 2:10am 173 2 G 3 56° 57% - - 41° 61.1° 55.6° - - -
5/24 2:00am 111 2 G 4 56° 57% - - 41° 61.1° 55.6° - - -
5/24 1:50am 76 5 G 6 56° 59% - - 42° 61.1° 55.6° - - -
5/24 1:40am 71 3 G 6 58° 55% - - 42° 61.1° 56.6° - - -
5/24 1:30am 88 2 G 3 58° 55% - - 42° 61.1° 57.1° - - -
5/24 1:20am 106 3 G 4 58° 56% - - 42° 61.1° 57.1° - - -
5/24 1:10am 83 6 G 8 58° 55% - - 42° 61.1° 57.3° - - -
5/24 1:00am 73 6 G 7 61° 50% - - 42° 61.1° 58.5° - - -
5/24 12:50am 68 7 G 8 59° 53% - - 42° 60.9° 58.5° - - -
5/24 12:40am 76 4 G 6 60° 50% - - 42° 60.9° 59.5° - - -
5/24 12:30am 67 3 G 4 60° 50% - - 42° 60.8° 59.5° - - -
5/24 12:20am 86 1 G 3 60° 50% - - 41° 60.5° 59.5° - - -
5/24 12:10am 129 1 G 2 60° 49% - - 41° 60.2° 59.5° - - -
5/24 12:00am 127 3 G 3 60° 48% - - 40° 93.7° 52° - - -
5/23 11:50pm 132 2 G 3 61° 47% - - 41° 93.7° 52° - - -
5/23 11:40pm 126 2 G 3 62° 46% - - 41° 93.7° 52° - - -
5/23 11:30pm 125 3 G 4 62° 48% - - 42° 93.7° 52° - - -
5/23 11:20pm 94 4 G 6 61° 51% - - 43° 93.7° 52° - - -
5/23 11:10pm 73 6 G 7 62° 50% - - 43° 93.7° 52° - - -
5/23 11:00pm 74 7 G 8 62° 51% - - 43° 93.7° 52° - - -
5/23 10:50pm 68 5 G 7 63° 48% - - 43° 93.7° 52° - - -
5/23 10:40pm 76 4 G 5 65° 45% - - 43° 93.7° 52° - - -
5/23 10:30pm 92 4 G 5 64° 45% - - 43° 93.7° 52° - - -
5/23 10:20pm 89 4 G 5 64° 44% - - 42° 93.7° 52° - - -
5/23 10:10pm 104 4 G 5 64° 45% - - 42° 93.7° 52° - - -
5/23 10:00pm 108 3 G 5 66° 41% - - 42° 93.7° 52° - - -
5/23 9:50pm 88 4 G 6 66° 45% - - 45° 93.7° 52° - - -
5/23 9:40pm 74 6 G 7 67° 45% - - 45° 93.7° 52° - - -
5/23 9:30pm 77 5 G 7 68° 43% - - 45° 93.7° 52° - - -
5/23 9:20pm 94 2 G 5 69° 45% - - 47° 93.7° 52° - - -
5/23 9:10pm 222 5 G 8 71° 43% - - 47° 93.7° 52° - - -
5/23 9:00pm 232 5 G 7 72° 41% - - 47° 93.7° 52° - - -
5/23 8:50pm 235 5 G 9 73° 38% - - 46° 93.7° 52° - - -
5/23 8:40pm 238 7 G 9 73° 37% - - 45° 93.7° 52° - - -
5/23 8:30pm 226 8 G 11 73° 37% - - 45° 93.7° 52° - - -
5/23 8:20pm 225 9 G 12 73° 36% - - 45° 93.7° 52° - - -
5/23 8:10pm 222 9 G 12 74° 34% - - 44° 93.7° 52° - - -
5/23 8:00pm 218 9 G 12 74° 33% - - 43° 93.7° 52° - - -
5/23 7:50pm 227 9 G 12 76° 31% - - 42° 93.7° 52° - - -
5/23 7:40pm 240 10 G 12 77° 29% - - 42° 93.7° 52° - - -
5/23 7:30pm 244 10 G 14 78° 26% - - 40° 93.7° 52° - - -
5/23 7:20pm 239 10 G 13 79° 24% - - 39° 93.7° 52° - - -
5/23 7:10pm 238 10 G 14 80° 23% - - 39° 93.7° 52° - - -
5/23 7:00pm 245 10 G 12 80° 23% - - 39° 93.7° 52° - - -
5/23 6:50pm 241 10 G 13 81° 22% - - 39° 93.7° 52° - - -
5/23 6:40pm 235 9 G 11 82° 21% - - 38° 93.7° 52° - - -
5/23 6:30pm 242 8 G 10 83° 21% - - 38° 93.7° 52° - - -
5/23 6:20pm 252 9 G 12 83° 21% - - 39° 93.7° 52° - - -
5/23 6:10pm 251 9 G 11 83° 22% - - 40° 93.7° 52° - - -
5/23 6:00pm 256 10 G 14 83° 23% - - 41° 93.7° 52° - - -
5/23 5:50pm 253 11 G 15 83° 24% - - 42° 93.7° 52° - - -
5/23 5:40pm 249 11 G 15 84° 24% - - 43° 93.7° 52° - - -
5/23 5:30pm 241 11 G 16 84° 24% - - 43° 93.7° 52° - - -
5/23 5:20pm 231 10 G 15 83° 26% - - 45° 93.7° 52° - - -
5/23 5:10pm 211 10 G 17 83° 26% - - 45° 93.7° 52° - - -
5/23 5:00pm 205 11 G 17 83° 27% - - 45° 93.7° 52° - - -
5/23 4:50pm 205 9 G 14 83° 28% - - 46° 93.7° 52° - - -
5/23 4:40pm 210 11 G 17 83° 29% - - 47° 93.7° 52° - - -
5/23 4:30pm 198 14 G 20 82° 31% - - 48° 93.7° 52° - - -
5/23 4:20pm 209 15 G 20 83° 31% - - 49° 93.7° 52° - - -
5/23 4:10pm 201 15 G 19 83° 31% - - 49° 93.7° 52° - - -
5/23 4:00pm 209 16 G 20 83° 31% - - 49° 93.7° 52° - - -
5/23 3:50pm 209 15 G 20 83° 31% - - 50° 93.7° 52° - - -
5/23 3:40pm 225 15 G 22 84° 33% - - 51° 93.7° 52° - - -
5/23 3:30pm 236 18 G 23 84° 33% - - 52° 93.7° 52° - - -
5/23 3:20pm 247 20 G 25 84° 33% - - 52° 93.7° 52° - - -
5/23 3:10pm 244 20 G 24 85° 31% - - 51° 93.7° 52° - - -
5/23 3:00pm 244 18 G 25 87° 27% - - 50° 93.7° 52° - - -
5/23 2:50pm 247 16 G 21 89° 23% - - 46° 93.7° 52° - - -
5/23 2:40pm 244 14 G 22 91° 17% - - 39° 93.7° 52° - - -
5/23 2:30pm 235 14 G 20 91° 15% - - 37° 93.7° 52° - - -
5/23 2:20pm 254 12 G 18 90° 14% - - 35° 93.7° 52° - - -
5/23 2:10pm 264 12 G 18 90° 15% - - 36° 93.7° 52° - - -
5/23 2:00pm 261 14 G 21 91° 15% - - 36° 93.7° 52° - - -
5/23 1:50pm 263 14 G 20 91° 17% - - 40° 93.7° 52° - - -
5/23 1:40pm 263 13 G 19 91° 12% - - 32° 93.7° 52° - - -
5/23 1:30pm 262 15 G 20 91° 13% - - 34° 93.7° 52° - - -
5/23 1:20pm 261 17 G 25 90° 14% - - 34° 93.7° 52° - - -
5/23 1:10pm 254 16 G 23 91° 14% - - 34° 93.7° 52° - - -
5/23 1:00pm 223 11 G 18 92° 10% - - 28° 93.7° 52° - - -
5/23 12:50pm 218 11 G 19 92° 11% - - 29° 93.7° 52° - - -
5/23 12:40pm 217 12 G 18 92° 11% - - 29° 93.7° 52° - - -
5/23 12:30pm 222 13 G 19 92° 10% - - 28° 93.7° 52° - - -
5/23 12:20pm 199 9 G 14 93° 9% - - 26° 93.7° 52° - - -
5/23 12:10pm 208 9 G 17 93° 9% - - 25° 93.3° 52° - - -
5/23 12:00pm 180 6 G 14 93° 9% - - 25° 93.3° 52° - - -
5/23 11:50am 211 6 G 13 92° 9% - - 26° 93.3° 52° - - -
5/23 11:40am 212 9 G 16 91° 9% - - 25° 92.1° 52° - - -
5/23 11:30am 231 6 G 16 91° 9% - - 25° 92.1° 52° - - -
5/23 11:20am 239 7 G 12 91° 10% - - 26° 91.3° 52° - - -
5/23 11:10am 212 6 G 11 90° 8% - - 22° 90.7° 52° - - -
5/23 11:00am 223 6 G 10 90° 10% - - 25° 90.5° 52° - - -
5/23 10:50am 216 6 G 10 88° 12% - - 29° 88.9° 52° - - -
5/23 10:40am 222 5 G 8 87° 17% - - 37° 87.4° 52° - - -
5/23 10:30am 244 4 G 7 86° 16% - - 35° 86.6° 52° - - -
5/23 10:20am 248 2 G 7 85° 16% - - 34° 86.3° 52° - - -
5/23 10:10am 271 2 G 5 83° 18% - - 36° 83.6° 52° - - -
5/23 10:00am 217 2 G 5 81° 20% - - 37° 82.4° 52° - - -
5/23 9:50am 278 1 G 4 80° 22% - - 37° 81.1° 52° - - -
5/23 9:40am 244 2 G 6 78° 24% - - 38° 79.1° 52° - - -
5/23 9:30am 272 2 G 3 77° 25% - - 38° 77.8° 52° - - -
5/23 9:20am 224 1 G 4 75° 28% - - 40° 76.3° 52° - - -
5/23 9:10am 66 1 G 3 73° 31% - - 40° 74.3° 52° - - -
5/23 9:00am 304 1 G 3 71° 32% - - 40° 71.4° 52° - - -
5/23 8:50am 284 1 G 3 69° 36% - - 41° 70.5° 52° - - -
5/23 8:40am 206 0 G 1 67° 40% - - 42° 68.8° 52° - - -
5/23 8:30am 240 0 G 2 66° 41% - - 42° 66.7° 52° - - -
5/23 8:20am 267 0 G 2 65° 44% - - 42° 66.1° 52° - - -
5/23 8:10am 261 1 G 2 64° 45% - - 43° 64.8° 52° - - -
5/23 8:00am 173 1 G 2 63° 47% - - 43° 64.3° 52° - - -
5/23 7:50am 149 1 G 3 64° 46% - - 43° 64.3° 52° - - -
5/23 7:40am 160 1 G 2 63° 49% - - 43° 64.2° 52° - - -
5/23 7:30am 204 0 G 2 64° 48% - - 44° 64.2° 52° - - -
5/23 7:20am 318 0 G 1 61° 52% - - 43° 63.1° 52° - - -
5/23 7:10am 160 0 G 1 60° 54% - - 43° 62.6° 52° - - -
5/23 7:00am 126 0 G 0 59° 56% - - 44° 62.6° 52° - - -
5/23 6:50am 125 0 G 1 57° 57% - - 42° 62.6° 52° - - -
5/23 6:40am 115 0 G 1 57° 56% - - 41° 62.6° 52° - - -
5/23 6:30am 0 0 G 0 56° 59% - - 42° 62.6° 52° - - -
5/23 6:20am 115 1 G 2 54° 63% - - 41° 62.6° 52° - - -
5/23 6:10am 98 1 G 3 53° 62% - - 40° 62.6° 52° - - -
5/23 6:00am 77 4 G 5 53° 61% - - 40° 62.6° 52° - - -